createdAt,value
2023-05-01T00:00:10.033Z,99439.81
2023-05-01T00:00:22.265Z,99440.59
2023-05-01T00:00:34.753Z,99442.41
2023-05-01T00:00:47.793Z,99436.31
2023-05-01T00:01:00.694Z,99438.91
2023-05-01T00:01:12.642Z,99442.41
2023-05-01T00:01:24.606Z,99439.97
2023-05-01T00:01:36.493Z,99439.03
2023-05-01T00:01:48.443Z,99438.13
2023-05-01T00:02:01.806Z,99438.13
2023-05-01T00:02:13.835Z,99439.97
2023-05-01T00:02:27.183Z,99439.81
2023-05-01T00:02:39.352Z,99440.69
2023-05-01T00:02:51.478Z,99439.69
2023-05-01T00:03:03.713Z,99431.09
2023-05-01T00:03:18.069Z,99439.75
2023-05-01T00:03:30.438Z,99435.38
2023-05-01T00:03:42.690Z,99436.25
2023-05-01T00:03:55.031Z,99439.03
2023-05-01T00:04:07.420Z,99439.03
2023-05-01T00:04:21.837Z,99432.09
2023-05-01T00:04:34.305Z,99438.25
2023-05-01T00:04:46.654Z,99439.97
2023-05-01T00:04:58.713Z,99438.25
2023-05-01T00:05:11.444Z,99436.44
2023-05-01T00:05:23.626Z,99443.34
2023-05-01T00:05:35.548Z,99439.81
2023-05-01T00:05:48.225Z,99441.53
2023-05-01T00:06:02.205Z,99436.44
2023-05-01T00:06:14.206Z,99434.59
2023-05-01T00:06:26.197Z,99438.13
2023-05-01T00:06:40.211Z,99445.13
2023-05-01T00:06:53.702Z,99434.59
2023-05-01T00:07:05.683Z,99437.16
2023-05-01T00:07:18.272Z,99439.69
2023-05-01T00:07:31.780Z,99439.63
2023-05-01T00:07:47.063Z,99438.78
2023-05-01T00:07:58.965Z,99441.38
2023-05-01T00:08:12.163Z,99443.94
2023-05-01T00:08:24.109Z,99436.16
2023-05-01T00:08:36.077Z,99439.69
2023-05-01T00:08:49.133Z,99439.56
2023-05-01T00:09:01.139Z,99439.56
2023-05-01T00:09:13.058Z,99444.75
2023-05-01T00:09:27.607Z,99441.19
2023-05-01T00:09:40.604Z,99434.22
2023-05-01T00:09:52.600Z,99434.22
2023-05-01T00:10:07.564Z,99433.28
2023-05-01T00:10:20.200Z,99436.81
2023-05-01T00:10:35.442Z,99434.22
2023-05-01T00:10:47.391Z,99436.03
2023-05-01T00:11:03.973Z,99441.09
2023-05-01T00:11:16.136Z,99435.00
2023-05-01T00:11:28.126Z,99432.44
2023-05-01T00:11:40.210Z,99435.06
2023-05-01T00:11:52.149Z,99437.59
2023-05-01T00:12:04.650Z,99432.41
2023-05-01T00:12:18.014Z,99434.09
2023-05-01T00:12:32.869Z,99437.50
2023-05-01T00:12:44.813Z,99435.06
2023-05-01T00:12:56.760Z,99426.34
2023-05-01T00:13:09.713Z,99440.22
2023-05-01T00:13:24.123Z,99432.34
2023-05-01T00:13:36.323Z,99436.63
2023-05-01T00:13:48.314Z,99435.78
2023-05-01T00:14:00.267Z,99431.41
2023-05-01T00:14:12.303Z,99428.94
2023-05-01T00:14:24.210Z,99438.13
2023-05-01T00:14:36.105Z,99433.66
2023-05-01T00:14:48.020Z,99438.84
2023-05-01T00:14:59.948Z,99433.72
2023-05-01T00:15:11.895Z,99434.50
2023-05-01T00:15:23.806Z,99431.88
2023-05-01T00:15:36.271Z,99437.03
2023-05-01T00:15:48.572Z,99438.00
2023-05-01T00:16:00.981Z,99434.50
2023-05-01T00:16:14.871Z,99437.88
2023-05-01T00:16:27.269Z,99429.13
2023-05-01T00:16:39.396Z,99430.84
2023-05-01T00:16:51.376Z,99431.63
2023-05-01T00:17:03.348Z,99425.47
2023-05-01T00:17:15.307Z,99428.88
2023-05-01T00:17:28.227Z,99430.56
2023-05-01T00:17:40.276Z,99436.56
2023-05-01T00:17:53.939Z,99426.28
2023-05-01T00:18:06.016Z,99436.63
2023-05-01T00:18:17.968Z,99431.34
2023-05-01T00:18:30.636Z,99433.94
2023-05-01T00:18:42.676Z,99428.69
2023-05-01T00:18:55.161Z,99429.50
2023-05-01T00:19:08.213Z,99427.06
2023-05-01T00:19:20.526Z,99432.13
2023-05-01T00:19:32.804Z,99431.22
2023-05-01T00:19:44.738Z,99428.63
2023-05-01T00:19:56.903Z,99430.31
2023-05-01T00:20:09.726Z,99435.50
2023-05-01T00:20:23.549Z,99430.31
2023-05-01T00:20:35.471Z,99428.63
2023-05-01T00:20:47.539Z,99438.97
2023-05-01T00:20:59.476Z,99425.22
2023-05-01T00:21:11.478Z,99434.09
2023-05-01T00:21:23.421Z,99434.09
2023-05-01T00:21:35.445Z,99424.47
2023-05-01T00:21:48.256Z,99431.28
2023-05-01T00:22:00.246Z,99433.94
2023-05-01T00:22:12.159Z,99432.13
2023-05-01T00:22:24.255Z,99426.97
2023-05-01T00:22:39.129Z,99434.88
2023-05-01T00:22:51.189Z,99430.56
2023-05-01T00:23:03.184Z,99429.66
2023-05-01T00:23:15.154Z,99430.56
2023-05-01T00:23:27.767Z,99428.75
2023-05-01T00:23:39.676Z,99432.13
2023-05-01T00:23:51.941Z,99432.13
2023-05-01T00:24:04.010Z,99428.75
2023-05-01T00:24:17.046Z,99419.16
2023-05-01T00:24:28.979Z,99428.75
2023-05-01T00:24:40.916Z,99426.97
2023-05-01T00:24:53.160Z,99429.50
2023-05-01T00:25:05.712Z,99437.22
2023-05-01T00:25:18.490Z,99431.06
2023-05-01T00:25:31.338Z,99428.47
2023-05-01T00:25:43.319Z,99423.25
2023-05-01T00:25:55.288Z,99423.25
2023-05-01T00:26:07.997Z,99426.66
2023-05-01T00:26:20.174Z,99422.34
2023-05-01T00:26:32.217Z,99426.66
2023-05-01T00:26:44.988Z,99418.81
2023-05-01T00:26:56.874Z,99429.13
2023-05-01T00:27:08.770Z,99426.44
2023-05-01T00:27:20.728Z,99424.81
2023-05-01T00:27:32.972Z,99422.97
2023-05-01T00:27:44.963Z,99424.81
2023-05-01T00:27:57.225Z,99424.81
2023-05-01T00:28:09.101Z,99428.34
2023-05-01T00:28:21.101Z,99423.97
2023-05-01T00:28:33.094Z,99430.03
2023-05-01T00:28:45.217Z,99424.81
2023-05-01T00:28:58.351Z,99424.81
2023-05-01T00:29:10.538Z,99423.91
2023-05-01T00:29:22.532Z,99425.59
2023-05-01T00:29:34.468Z,99426.44
2023-05-01T00:29:46.452Z,99428.34
2023-05-01T00:29:58.595Z,99423.81
2023-05-01T00:30:11.044Z,99416.94
2023-05-01T00:30:22.960Z,99419.47
2023-05-01T00:30:35.449Z,99421.22
2023-05-01T00:30:47.476Z,99417.78
2023-05-01T00:31:00.323Z,99427.47
2023-05-01T00:31:12.543Z,99416.22
2023-05-01T00:31:25.714Z,99424.03
2023-05-01T00:31:40.100Z,99426.66
2023-05-01T00:31:52.303Z,99422.25
2023-05-01T00:32:05.540Z,99422.25
2023-05-01T00:32:17.717Z,99423.97
2023-05-01T00:32:29.742Z,99419.59
2023-05-01T00:32:41.783Z,99414.38
2023-05-01T00:32:53.842Z,99414.38
2023-05-01T00:33:05.846Z,99430.34
2023-05-01T00:33:17.891Z,99425.09
2023-05-01T00:33:29.831Z,99418.03
2023-05-01T00:33:41.855Z,99417.16
2023-05-01T00:33:53.953Z,99418.03
2023-05-01T00:34:06.712Z,99419.75
2023-05-01T00:34:18.631Z,99427.41
2023-05-01T00:34:31.745Z,99412.72
2023-05-01T00:34:45.994Z,99421.44
2023-05-01T00:34:57.925Z,99416.94
2023-05-01T00:35:11.033Z,99416.88
2023-05-01T00:35:23.226Z,99416.00
2023-05-01T00:35:37.400Z,99417.78
2023-05-01T00:35:51.400Z,99414.25
2023-05-01T00:36:03.542Z,99416.88
2023-05-01T00:36:15.578Z,99421.31
2023-05-01T00:36:27.639Z,99423.13
2023-05-01T00:36:39.868Z,99419.59
2023-05-01T00:36:52.347Z,99418.81
2023-05-01T00:37:04.299Z,99424.81
2023-05-01T00:37:17.401Z,99418.75
2023-05-01T00:37:29.343Z,99411.78
2023-05-01T00:37:41.841Z,99421.44
2023-05-01T00:37:54.169Z,99416.16
2023-05-01T00:38:06.069Z,99419.53
2023-05-01T00:38:20.622Z,99417.81
2023-05-01T00:38:32.517Z,99413.41
2023-05-01T00:38:46.212Z,99410.88
2023-05-01T00:38:58.119Z,99414.25
2023-05-01T00:39:10.002Z,99408.28
2023-05-01T00:39:22.705Z,99412.56
2023-05-01T00:39:34.666Z,99410.88
2023-05-01T00:39:46.632Z,99415.16
2023-05-01T00:39:58.748Z,99414.25
2023-05-01T00:40:11.187Z,99407.28
2023-05-01T00:40:23.253Z,99406.44
2023-05-01T00:40:44.843Z,99412.44
2023-05-01T00:40:56.900Z,99409.72
2023-05-01T00:41:08.840Z,99407.22
2023-05-01T00:41:21.303Z,99409.72
2023-05-01T00:41:34.397Z,99410.59
2023-05-01T00:41:46.448Z,99405.38
2023-05-01T00:41:58.386Z,99411.44
2023-05-01T00:42:10.371Z,99410.50
2023-05-01T00:42:22.433Z,99419.19
2023-05-01T00:42:39.149Z,99410.44
2023-05-01T00:42:51.252Z,99406.94
2023-05-01T00:43:03.297Z,99412.16
2023-05-01T00:43:15.575Z,99412.16
2023-05-01T00:43:27.541Z,99403.56
2023-05-01T00:43:39.452Z,99411.44
2023-05-01T00:43:51.421Z,99401.91
2023-05-01T00:44:03.393Z,99402.69
2023-05-01T00:44:16.653Z,99406.22
2023-05-01T00:44:28.596Z,99406.28
2023-05-01T00:44:40.548Z,99407.06
2023-05-01T00:44:52.446Z,99409.72
2023-05-01T00:45:05.433Z,99407.06
2023-05-01T00:45:17.811Z,99401.84
2023-05-01T00:45:29.812Z,99407.06
2023-05-01T00:45:45.317Z,99407.06
2023-05-01T00:45:57.294Z,99401.84
2023-05-01T00:46:12.807Z,99408.78
2023-05-01T00:46:25.349Z,99410.44
2023-05-01T00:46:37.487Z,99407.06
2023-05-01T00:46:49.701Z,99403.56
2023-05-01T00:47:02.378Z,99398.34
2023-05-01T00:47:14.605Z,99401.72
2023-05-01T00:47:26.935Z,99394.81
2023-05-01T00:47:39.495Z,99410.31
2023-05-01T00:47:51.818Z,99406.88
2023-05-01T00:48:05.763Z,99400.84
2023-05-01T00:48:17.879Z,99397.34
2023-05-01T00:48:30.297Z,99405.22
2023-05-01T00:48:43.067Z,99401.72
2023-05-01T00:48:55.150Z,99405.19
2023-05-01T00:49:07.185Z,99396.50
2023-05-01T00:49:19.164Z,99404.28
2023-05-01T00:49:31.477Z,99403.34
2023-05-01T00:49:44.492Z,99401.56
2023-05-01T00:49:57.262Z,99403.28
2023-05-01T00:50:10.410Z,99392.84
2023-05-01T00:50:22.673Z,99396.34
2023-05-01T00:50:35.888Z,99398.19
2023-05-01T00:50:49.133Z,99403.41
2023-05-01T00:51:04.524Z,99397.28
2023-05-01T00:51:16.485Z,99397.28
2023-05-01T00:51:29.278Z,99397.34
2023-05-01T00:51:42.537Z,99401.56
2023-05-01T00:51:54.998Z,99392.06
2023-05-01T00:52:07.003Z,99399.75
2023-05-01T00:52:18.969Z,99395.47
2023-05-01T00:52:30.879Z,99398.97
2023-05-01T00:52:42.895Z,99392.91
2023-05-01T00:52:55.460Z,99390.31
2023-05-01T00:53:07.487Z,99398.97
2023-05-01T00:53:20.305Z,99399.75
2023-05-01T00:53:34.159Z,99398.97
2023-05-01T00:53:46.582Z,99397.22
2023-05-01T00:54:00.503Z,99391.31
2023-05-01T00:54:13.117Z,99397.34
2023-05-01T00:54:27.478Z,99387.91
2023-05-01T00:54:44.896Z,99391.31
2023-05-01T00:54:57.941Z,99393.84
2023-05-01T00:55:10.087Z,99397.28
2023-05-01T00:55:22.209Z,99397.28
2023-05-01T00:55:35.811Z,99394.69
2023-05-01T00:55:48.503Z,99397.22
2023-05-01T00:56:00.922Z,99396.34
2023-05-01T00:56:13.118Z,99392.00
2023-05-01T00:56:26.267Z,99402.44
2023-05-01T00:56:38.582Z,99395.53
2023-05-01T00:56:52.115Z,99394.81
2023-05-01T00:57:05.076Z,99395.81
2023-05-01T00:57:18.061Z,99389.66
2023-05-01T00:57:30.755Z,99395.81
2023-05-01T00:57:42.820Z,99396.56
2023-05-01T00:57:56.229Z,99399.19
2023-05-01T00:58:08.811Z,99397.47
2023-05-01T00:58:20.981Z,99394.97
2023-05-01T00:58:33.218Z,99398.34
2023-05-01T00:58:49.545Z,99394.03
2023-05-01T00:59:01.432Z,99393.25
2023-05-01T00:59:14.930Z,99396.78
2023-05-01T00:59:27.033Z,99390.66
2023-05-01T00:59:39.391Z,99394.97
2023-05-01T00:59:51.384Z,99394.97
2023-05-01T01:00:06.867Z,99391.56
2023-05-01T01:00:19.418Z,99394.38
2023-05-01T01:00:32.436Z,99392.75
2023-05-01T01:00:44.507Z,99393.53
2023-05-01T01:00:56.819Z,99394.31
2023-05-01T01:01:09.936Z,99393.41
2023-05-01T01:01:22.658Z,99396.78
2023-05-01T01:01:37.477Z,99396.69
2023-05-01T01:01:50.687Z,99390.59
2023-05-01T01:02:03.081Z,99394.97
2023-05-01T01:02:15.582Z,99388.88
2023-05-01T01:02:27.691Z,99387.19
2023-05-01T01:02:39.739Z,99388.03
2023-05-01T01:02:52.108Z,99388.81
2023-05-01T01:03:05.840Z,99387.91
2023-05-01T01:03:17.864Z,99384.44
2023-05-01T01:03:30.880Z,99389.75
2023-05-01T01:03:42.808Z,99388.03
2023-05-01T01:03:54.814Z,99390.66
2023-05-01T01:04:06.904Z,99387.13
2023-05-01T01:04:20.036Z,99386.22
2023-05-01T01:04:33.442Z,99390.59
2023-05-01T01:04:47.082Z,99386.38
2023-05-01T01:04:59.350Z,99381.94
2023-05-01T01:05:11.538Z,99388.75
2023-05-01T01:05:28.120Z,99384.38
2023-05-01T01:05:51.348Z,99391.47
2023-05-01T01:06:20.076Z,99385.44
2023-05-01T01:07:07.997Z,99384.38
2023-05-01T01:07:37.613Z,99382.69
2023-05-01T01:07:58.154Z,99380.88
2023-05-01T01:08:22.998Z,99386.22
2023-05-01T01:08:48.159Z,99387.03
2023-05-01T01:09:08.123Z,99381.84
2023-05-01T01:09:31.907Z,99386.22
2023-05-01T01:10:05.788Z,99380.00
2023-05-01T01:10:27.544Z,99381.84
2023-05-01T01:11:12.829Z,99378.25
2023-05-01T01:11:40.261Z,99381.66
2023-05-01T01:12:01.433Z,99375.50
2023-05-01T01:12:26.917Z,99382.41
2023-05-01T01:13:08.247Z,99380.72
2023-05-01T01:13:32.737Z,99377.34
2023-05-01T01:14:00.939Z,99375.66
2023-05-01T01:14:32.067Z,99373.03
2023-05-01T01:14:55.827Z,99379.94
2023-05-01T01:15:27.098Z,99387.63
2023-05-01T01:15:53.674Z,99380.66
2023-05-01T01:16:39.641Z,99379.03
2023-05-01T01:17:07.960Z,99375.50
2023-05-01T01:17:45.456Z,99378.09
2023-05-01T01:18:08.064Z,99377.34
2023-05-01T01:18:33.047Z,99374.78
2023-05-01T01:18:56.409Z,99377.34
2023-05-01T01:19:33.471Z,99375.59
2023-05-01T01:20:15.885Z,99377.34
2023-05-01T01:20:50.751Z,99374.78
2023-05-01T01:21:16.085Z,99377.47
2023-05-01T01:21:47.343Z,99373.88
2023-05-01T01:22:07.686Z,99375.66
2023-05-01T01:22:24.069Z,99373.81
2023-05-01T01:22:38.566Z,99376.50
2023-05-01T01:22:59.754Z,99375.59
2023-05-01T01:23:35.749Z,99372.13
2023-05-01T01:24:09.654Z,99375.66
2023-05-01T01:24:43.299Z,99373.00
2023-05-01T01:25:32.943Z,99372.00
2023-05-01T01:26:12.995Z,99377.06
2023-05-01T01:26:47.539Z,99371.84
2023-05-01T01:27:24.151Z,99372.59
2023-05-01T01:28:03.898Z,99377.06
2023-05-01T01:28:24.821Z,99366.63
2023-05-01T01:28:46.244Z,99365.84
2023-05-01T01:29:34.937Z,99370.28
2023-05-01T01:30:17.684Z,99376.44
2023-05-01T01:31:01.514Z,99369.56
2023-05-01T01:32:01.410Z,99373.31
2023-05-01T01:33:07.992Z,99373.50
2023-05-01T01:33:23.606Z,99369.22
2023-05-01T01:33:54.502Z,99370.84
2023-05-01T01:34:33.264Z,99372.63
2023-05-01T01:34:51.748Z,99367.34
2023-05-01T01:35:13.382Z,99373.50
2023-05-01T01:35:26.958Z,99370.91
2023-05-01T01:35:46.870Z,99360.41
2023-05-01T01:36:04.598Z,99365.50
2023-05-01T01:36:21.265Z,99370.72
2023-05-01T01:36:59.872Z,99375.94
2023-05-01T01:37:16.119Z,99369.72
2023-05-01T01:37:43.802Z,99372.41
2023-05-01T01:38:01.685Z,99369.94
2023-05-01T01:38:19.500Z,99365.50
2023-05-01T01:38:45.653Z,99371.56
2023-05-01T01:39:07.996Z,99361.97
2023-05-01T01:39:28.945Z,99372.41
2023-05-01T01:39:49.528Z,99371.50
2023-05-01T01:40:04.217Z,99370.56
2023-05-01T01:40:22.320Z,99363.66
2023-05-01T01:40:55.452Z,99363.03
2023-05-01T01:41:13.635Z,99367.25
2023-05-01T01:41:31.475Z,99365.78
2023-05-01T01:41:49.568Z,99367.34
2023-05-01T01:42:09.761Z,99369.00
2023-05-01T01:42:37.563Z,99372.38
2023-05-01T01:42:53.092Z,99365.41
2023-05-01T01:43:10.586Z,99363.50
2023-05-01T01:43:24.194Z,99371.19
2023-05-01T01:43:45.479Z,99371.41
2023-05-01T01:44:23.463Z,99366.41
2023-05-01T01:44:42.938Z,99369.72
2023-05-01T01:44:58.626Z,99366.19
2023-05-01T01:45:21.221Z,99363.44
2023-05-01T01:45:46.252Z,99364.22
2023-05-01T01:46:07.445Z,99366.19
2023-05-01T01:46:22.170Z,99364.50
2023-05-01T01:46:38.213Z,99366.41
2023-05-01T01:46:53.022Z,99366.47
2023-05-01T01:47:08.348Z,99368.13
2023-05-01T01:47:24.402Z,99366.34
2023-05-01T01:47:40.978Z,99365.34
2023-05-01T01:47:54.691Z,99369.97
2023-05-01T01:48:11.520Z,99367.34
2023-05-01T01:48:29.981Z,99364.06
2023-05-01T01:48:46.472Z,99368.28
2023-05-01T01:49:00.124Z,99371.66
2023-05-01T01:49:20.718Z,99368.13
2023-05-01T01:49:37.150Z,99361.13
2023-05-01T01:49:52.606Z,99364.50
2023-05-01T01:50:08.202Z,99360.97
2023-05-01T01:50:25.757Z,99363.72
2023-05-01T01:50:39.168Z,99370.63
2023-05-01T01:50:54.878Z,99366.34
2023-05-01T01:51:12.128Z,99362.81
2023-05-01T01:51:26.840Z,99358.44
2023-05-01T01:51:41.835Z,99369.72
2023-05-01T01:51:55.598Z,99362.69
2023-05-01T01:52:10.321Z,99367.88
2023-05-01T01:52:24.952Z,99361.81
2023-05-01T01:52:40.628Z,99366.13
2023-05-01T01:52:54.520Z,99364.41
2023-05-01T01:53:11.301Z,99358.38
2023-05-01T01:53:26.288Z,99361.13
2023-05-01T01:53:41.231Z,99363.56
2023-05-01T01:53:57.937Z,99362.81
2023-05-01T01:54:13.110Z,99369.78
2023-05-01T01:54:33.011Z,99359.41
2023-05-01T01:54:50.992Z,99357.41
2023-05-01T01:55:08.864Z,99365.16
2023-05-01T01:55:23.764Z,99359.97
2023-05-01T01:55:37.935Z,99358.13
2023-05-01T01:55:52.699Z,99360.81
2023-05-01T01:56:07.126Z,99359.03
2023-05-01T01:56:21.521Z,99362.56
2023-05-01T01:56:35.485Z,99359.25
2023-05-01T01:56:50.262Z,99362.63
2023-05-01T01:57:04.373Z,99362.50
2023-05-01T01:57:18.595Z,99363.19
2023-05-01T01:57:31.568Z,99358.91
2023-05-01T01:57:46.675Z,99363.34
2023-05-01T01:58:00.780Z,99362.41
2023-05-01T01:58:16.014Z,99362.41
2023-05-01T01:58:29.689Z,99364.06
2023-05-01T01:58:43.583Z,99357.97
2023-05-01T01:58:56.883Z,99364.91
2023-05-01T01:59:11.023Z,99357.97
2023-05-01T01:59:24.088Z,99358.91
2023-05-01T01:59:36.252Z,99365.75
2023-05-01T01:59:51.259Z,99360.53
2023-05-01T02:00:08.760Z,99365.03
2023-05-01T02:00:22.629Z,99361.63
2023-05-01T02:00:35.883Z,99359.97
2023-05-01T02:00:49.181Z,99356.44
2023-05-01T02:01:03.662Z,99356.44
2023-05-01T02:01:18.516Z,99355.47
2023-05-01T02:01:30.999Z,99358.25
2023-05-01T02:01:44.670Z,99364.47
2023-05-01T02:01:58.116Z,99360.09
2023-05-01T02:02:11.337Z,99360.03
2023-05-01T02:02:24.737Z,99357.41
2023-05-01T02:02:39.428Z,99357.34
2023-05-01T02:02:54.562Z,99355.91
2023-05-01T02:03:07.162Z,99356.69
2023-05-01T02:03:20.747Z,99359.25
2023-05-01T02:03:35.405Z,99355.03
2023-05-01T02:03:48.140Z,99355.84
2023-05-01T02:04:01.716Z,99354.09
2023-05-01T02:04:15.052Z,99358.41
2023-05-01T02:04:28.215Z,99354.88
2023-05-01T02:04:42.974Z,99354.88
2023-05-01T02:04:58.226Z,99357.56
2023-05-01T02:05:13.805Z,99358.41
2023-05-01T02:05:27.210Z,99359.31
2023-05-01T02:05:42.257Z,99360.94
2023-05-01T02:05:59.761Z,99354.03
2023-05-01T02:06:13.860Z,99355.03
2023-05-01T02:06:27.676Z,99363.63
2023-05-01T02:06:41.311Z,99361.78
2023-05-01T02:06:59.667Z,99357.75
2023-05-01T02:07:14.337Z,99365.44
2023-05-01T02:07:29.003Z,99356.69
2023-05-01T02:07:42.834Z,99359.31
2023-05-01T02:07:56.366Z,99360.09
2023-05-01T02:08:09.744Z,99362.69
2023-05-01T02:08:23.478Z,99354.88
2023-05-01T02:08:37.701Z,99361.78
2023-05-01T02:08:51.548Z,99358.25
2023-05-01T02:09:06.492Z,99358.41
2023-05-01T02:09:21.133Z,99351.38
2023-05-01T02:09:35.282Z,99354.75
2023-05-01T02:09:49.608Z,99356.38
2023-05-01T02:10:02.400Z,99355.66
2023-05-01T02:10:16.168Z,99359.50
2023-05-01T02:10:29.660Z,99360.44
2023-05-01T02:10:43.179Z,99356.97
2023-05-01T02:11:01.810Z,99360.50
2023-05-01T02:11:17.478Z,99359.56
2023-05-01T02:11:31.729Z,99356.13
2023-05-01T02:11:44.638Z,99360.50
2023-05-01T02:11:58.916Z,99359.66
2023-05-01T02:12:13.228Z,99362.31
2023-05-01T02:12:26.864Z,99361.59
2023-05-01T02:12:40.198Z,99361.72
2023-05-01T02:12:54.797Z,99353.00
2023-05-01T02:13:09.603Z,99356.41
2023-05-01T02:13:22.150Z,99362.44
2023-05-01T02:13:36.481Z,99347.66
2023-05-01T02:13:51.799Z,99357.13
2023-05-01T02:14:05.877Z,99358.06
2023-05-01T02:14:18.761Z,99367.59
2023-05-01T02:14:33.392Z,99359.06
2023-05-01T02:14:48.099Z,99366.09
2023-05-01T02:15:00.932Z,99365.59
2023-05-01T02:15:17.393Z,99365.59
2023-05-01T02:15:30.791Z,99361.16
2023-05-01T02:15:45.759Z,99358.34
2023-05-01T02:16:02.758Z,99353.00
2023-05-01T02:16:16.301Z,99359.06
2023-05-01T02:16:28.564Z,99354.97
2023-05-01T02:16:42.605Z,99359.22
2023-05-01T02:16:57.317Z,99362.59
2023-05-01T02:17:10.512Z,99352.19
2023-05-01T02:17:24.033Z,99353.84
2023-05-01T02:17:38.091Z,99352.09
2023-05-01T02:17:52.830Z,99364.28
2023-05-01T02:18:08.905Z,99353.84
2023-05-01T02:18:22.180Z,99360.78
2023-05-01T02:18:36.446Z,99353.84
2023-05-01T02:18:50.395Z,99352.19
2023-05-01T02:19:04.613Z,99346.97
2023-05-01T02:19:18.053Z,99353.84
2023-05-01T02:19:32.204Z,99353.78
2023-05-01T02:19:45.190Z,99354.69
2023-05-01T02:19:59.559Z,99350.47
2023-05-01T02:20:12.982Z,99361.72
2023-05-01T02:20:25.141Z,99362.59
2023-05-01T02:20:39.042Z,99359.06
2023-05-01T02:20:51.875Z,99353.84
2023-05-01T02:21:04.607Z,99354.69
2023-05-01T02:21:17.947Z,99360.78
2023-05-01T02:21:31.083Z,99353.84
2023-05-01T02:21:45.078Z,99354.28
2023-05-01T02:21:58.621Z,99354.44
2023-05-01T02:22:11.660Z,99358.16
2023-05-01T02:22:25.820Z,99358.97
2023-05-01T02:22:39.823Z,99357.34
2023-05-01T02:22:53.599Z,99358.19
2023-05-01T02:23:08.181Z,99354.72
2023-05-01T02:23:20.250Z,99353.84
2023-05-01T02:23:33.505Z,99362.44
2023-05-01T02:23:45.402Z,99364.13
2023-05-01T02:24:02.061Z,99356.22
2023-05-01T02:24:14.367Z,99358.78
2023-05-01T02:24:28.407Z,99357.91
2023-05-01T02:24:43.721Z,99363.13
2023-05-01T02:24:58.271Z,99354.44
2023-05-01T02:25:12.305Z,99357.28
2023-05-01T02:25:25.022Z,99359.25
2023-05-01T02:25:39.334Z,99363.59
2023-05-01T02:25:52.994Z,99358.38
2023-05-01T02:26:06.628Z,99366.97
2023-05-01T02:26:20.351Z,99363.47
2023-05-01T02:26:38.691Z,99363.47
2023-05-01T02:26:59.604Z,99359.94
2023-05-01T02:27:19.871Z,99361.69
2023-05-01T02:27:35.915Z,99363.47
2023-05-01T02:27:50.359Z,99364.31
2023-05-01T02:28:08.685Z,99359.94
2023-05-01T02:28:23.330Z,99359.09
2023-05-01T02:28:41.255Z,99360.91
2023-05-01T02:28:53.574Z,99360.09
2023-05-01T02:29:07.404Z,99367.91
2023-05-01T02:29:19.304Z,99366.97
2023-05-01T02:29:31.229Z,99358.25
2023-05-01T02:29:44.226Z,99356.56
2023-05-01T02:29:56.683Z,99359.94
2023-05-01T02:30:09.564Z,99359.94
2023-05-01T02:30:21.663Z,99360.75
2023-05-01T02:30:33.652Z,99358.16
2023-05-01T02:30:47.072Z,99356.69
2023-05-01T02:30:58.963Z,99363.00
2023-05-01T02:31:11.421Z,99356.13
2023-05-01T02:31:23.495Z,99360.47
2023-05-01T02:31:35.673Z,99356.97
2023-05-01T02:31:47.910Z,99354.34
2023-05-01T02:32:01.189Z,99358.63
2023-05-01T02:32:13.297Z,99357.78
2023-05-01T02:32:25.924Z,99345.69
2023-05-01T02:32:37.977Z,99356.19
2023-05-01T02:32:50.505Z,99349.34
2023-05-01T02:33:03.108Z,99358.88
2023-05-01T02:33:15.324Z,99354.56
2023-05-01T02:33:27.287Z,99349.34
2023-05-01T02:33:39.256Z,99351.88
2023-05-01T02:33:51.604Z,99360.59
2023-05-01T02:34:03.608Z,99357.06
2023-05-01T02:34:15.535Z,99355.25
2023-05-01T02:34:27.973Z,99353.56
2023-05-01T02:34:40.057Z,99353.00
2023-05-01T02:34:52.059Z,99355.50
2023-05-01T02:35:04.729Z,99352.84
2023-05-01T02:35:17.674Z,99350.19
2023-05-01T02:35:29.632Z,99358.88
2023-05-01T02:35:44.015Z,99353.94
2023-05-01T02:35:55.985Z,99354.09
2023-05-01T02:36:08.471Z,99354.03
2023-05-01T02:36:21.491Z,99354.09
2023-05-01T02:36:33.441Z,99354.09
2023-05-01T02:36:45.367Z,99354.09
2023-05-01T02:36:57.296Z,99351.53
2023-05-01T02:37:11.765Z,99354.94
2023-05-01T02:37:23.862Z,99351.66
2023-05-01T02:37:36.124Z,99347.44
2023-05-01T02:37:48.351Z,99356.03
2023-05-01T02:38:00.322Z,99352.53
2023-05-01T02:38:12.912Z,99354.97
2023-05-01T02:38:24.895Z,99345.34
2023-05-01T02:38:37.071Z,99349.59
2023-05-01T02:38:51.807Z,99346.91
2023-05-01T02:39:05.501Z,99351.53
2023-05-01T02:39:17.582Z,99355.19
2023-05-01T02:39:29.605Z,99347.31
2023-05-01T02:39:41.685Z,99350.75
2023-05-01T02:39:54.772Z,99347.16
2023-05-01T02:40:07.582Z,99352.63
2023-05-01T02:40:19.735Z,99344.19
2023-05-01T02:40:32.817Z,99351.13
2023-05-01T02:40:50.545Z,99347.56
2023-05-01T02:41:03.676Z,99344.03
2023-05-01T02:41:16.413Z,99347.56
2023-05-01T02:41:30.636Z,99344.78
2023-05-01T02:41:42.947Z,99349.13
2023-05-01T02:41:58.652Z,99347.56
2023-05-01T02:42:12.720Z,99344.03
2023-05-01T02:42:27.151Z,99352.69
2023-05-01T02:42:41.071Z,99347.44
2023-05-01T02:42:53.220Z,99344.19
2023-05-01T02:43:09.770Z,99347.44
2023-05-01T02:43:22.869Z,99338.72
2023-05-01T02:43:36.586Z,99346.00
2023-05-01T02:43:56.783Z,99340.25
2023-05-01T02:44:11.331Z,99347.09
2023-05-01T02:44:25.182Z,99340.91
2023-05-01T02:44:41.771Z,99341.69
2023-05-01T02:45:05.533Z,99341.44
2023-05-01T02:45:23.608Z,99346.72
2023-05-01T02:45:39.256Z,99339.59
2023-05-01T02:45:52.165Z,99339.06
2023-05-01T02:46:05.717Z,99342.44
2023-05-01T02:46:20.602Z,99349.31
2023-05-01T02:46:36.763Z,99345.03
2023-05-01T02:46:52.118Z,99342.25
2023-05-01T02:47:07.082Z,99343.81
2023-05-01T02:47:23.107Z,99343.66
2023-05-01T02:47:38.718Z,99340.06
2023-05-01T02:47:54.452Z,99342.66
2023-05-01T02:48:09.942Z,99346.13
2023-05-01T02:48:25.419Z,99333.94
2023-05-01T02:48:38.590Z,99334.03
2023-05-01T02:48:52.629Z,99337.53
2023-05-01T02:49:06.434Z,99330.66
2023-05-01T02:49:20.274Z,99339.59
2023-05-01T02:49:33.585Z,99337.00
2023-05-01T02:49:48.050Z,99341.28
2023-05-01T02:50:00.734Z,99341.41
2023-05-01T02:50:15.083Z,99331.78
2023-05-01T02:50:27.636Z,99337.00
2023-05-01T02:50:41.091Z,99337.78
2023-05-01T02:50:55.479Z,99333.59
2023-05-01T02:51:07.959Z,99332.56
2023-05-01T02:51:23.029Z,99334.13
2023-05-01T02:51:37.278Z,99341.22
2023-05-01T02:51:50.061Z,99331.59
2023-05-01T02:52:03.086Z,99339.16
2023-05-01T02:52:17.282Z,99339.69
2023-05-01T02:52:30.076Z,99329.13
2023-05-01T02:52:43.562Z,99335.13
2023-05-01T02:52:56.946Z,99335.97
2023-05-01T02:53:09.578Z,99332.47
2023-05-01T02:53:22.453Z,99332.69
2023-05-01T02:53:36.268Z,99331.09
2023-05-01T02:53:48.614Z,99331.19
2023-05-01T02:54:01.276Z,99332.69
2023-05-01T02:54:13.896Z,99330.81
2023-05-01T02:54:25.863Z,99331.72
2023-05-01T02:54:39.277Z,99337.66
2023-05-01T02:54:51.803Z,99336.63
2023-05-01T02:55:05.469Z,99328.69
2023-05-01T02:55:18.270Z,99331.22
2023-05-01T02:55:30.304Z,99333.63
2023-05-01T02:55:43.708Z,99337.00
2023-05-01T02:55:56.582Z,99337.94
2023-05-01T02:56:08.743Z,99336.13
2023-05-01T02:56:23.440Z,99331.69
2023-05-01T02:56:35.695Z,99330.81
2023-05-01T02:56:47.636Z,99335.97
2023-05-01T02:57:02.263Z,99329.88
2023-05-01T02:57:14.432Z,99334.94
2023-05-01T02:57:27.594Z,99334.03
2023-05-01T02:57:39.494Z,99330.00
2023-05-01T02:57:51.872Z,99335.97